Time;durP1;ratioP1;P1;durP2;ratioP2;P2;SDS_P1;SDS_P2;PMS_P1;PMS_P2;Temp;Humidity;BMP_temperature;BMP_pressure;BME280_temperature;BME280_humidity;BME280_pressure;Samples;Min_cycle;Max_cycle;Signal;HPM_P1;HPM_P2
2024/01/22 05:53:26;;;;;;;2.17;1.15;;;-0.70;99.90;;;;;;7605813;19;20725;-76
2024/01/22 05:55:59;;;;;;;1.95;1.20;;;-0.80;99.90;;;;;;7605252;19;20406;-76
2024/01/22 05:58:31;;;;;;;1.98;1.00;;;-0.60;99.90;;;;;;7617584;19;20168;-77
2024/01/22 06:01:03;;;;;;;1.38;1.08;;;-0.50;99.90;;;;;;7578712;19;20018;-76
2024/01/22 06:03:36;;;;;;;2.22;1.25;;;-0.40;99.90;;;;;;7605718;19;20018;-74
2024/01/22 06:06:08;;;;;;;2.58;1.85;;;-0.40;99.90;;;;;;7575940;19;20017;-74
2024/01/22 06:08:46;;;;;;;3.95;2.03;;;-0.30;99.90;;;;;;7591293;19;20097;-74
2024/01/22 06:11:19;;;;;;;6.72;1.88;;;-0.20;99.90;;;;;;7581696;19;20048;-76
2024/01/22 06:13:52;;;;;;;4.68;1.23;;;-0.10;99.90;;;;;;7599390;19;20015;-76
2024/01/22 06:16:33;;;;;;;2.50;1.30;;;0.10;99.90;;;;;;7619493;19;20025;-74
2024/01/22 06:19:06;;;;;;;2.30;1.30;;;0.30;99.90;;;;;;7587825;19;20014;-76
2024/01/22 06:21:38;;;;;;;4.55;1.60;;;0.30;99.60;;;;;;7594996;19;20698;-74
2024/01/22 06:24:10;;;;;;;1.45;0.98;;;0.30;99.90;;;;;;7599097;19;21310;-75
2024/01/22 06:26:43;;;;;;;1.50;1.10;;;0.30;99.40;;;;;;7588061;19;20017;-74
2024/01/22 06:29:15;;;;;;;2.17;1.10;;;0.30;99.30;;;;;;7580178;19;20569;-75
2024/01/22 06:31:47;;;;;;;5.75;1.38;;;0.40;98.90;;;;;;7590732;19;20029;-74
2024/01/22 06:34:20;;;;;;;1.95;1.48;;;0.50;99.00;;;;;;7621873;19;20029;-75
2024/01/22 06:36:53;;;;;;;2.38;1.27;;;0.40;99.10;;;;;;7607848;19;20097;-75
2024/01/22 06:39:26;;;;;;;10.10;1.40;;;0.30;99.40;;;;;;7591456;19;20021;-76
2024/01/22 06:41:58;;;;;;;3.63;1.60;;;0.40;99.30;;;;;;7610435;19;20354;-76
2024/01/22 06:44:31;;;;;;;2.40;1.33;;;0.40;99.40;;;;;;7608115;19;20018;-77
2024/01/22 06:47:04;;;;;;;6.35;1.45;;;0.50;99.00;;;;;;7609267;19;20579;-77
2024/01/22 06:49:37;;;;;;;1.77;1.30;;;0.50;99.10;;;;;;7626472;19;20014;-76
2024/01/22 06:52:09;;;;;;;2.67;1.60;;;0.50;99.30;;;;;;7615017;19;20051;-76
2024/01/22 06:54:42;;;;;;;3.72;1.95;;;0.50;99.90;;;;;;7624889;19;20042;-75
2024/01/22 06:57:14;;;;;;;3.58;1.60;;;0.40;99.90;;;;;;7575434;19;20013;-76
2024/01/22 06:59:47;;;;;;;7.50;2.25;;;0.30;99.90;;;;;;7609391;19;20048;-78
2024/01/22 07:02:19;;;;;;;4.30;2.67;;;0.30;99.90;;;;;;7616455;19;20011;-76
2024/01/22 07:04:52;;;;;;;3.60;2.00;;;0.10;99.90;;;;;;7579963;19;20026;-78
2024/01/22 07:07:25;;;;;;;4.15;2.35;;;0.10;99.90;;;;;;7563704;19;20392;-77
2024/01/22 07:09:58;;;;;;;3.13;2.20;;;0.00;99.90;;;;;;7575380;19;21231;-78
2024/01/22 07:12:31;;;;;;;4.30;2.47;;;-0.10;99.90;;;;;;7550828;19;20010;-77
2024/01/22 07:15:04;;;;;;;7.65;2.10;;;-0.10;99.90;;;;;;7569986;19;20019;-78
2024/01/22 07:17:38;;;;;;;3.17;1.83;;;-0.10;99.90;;;;;;7557875;19;21086;-77
2024/01/22 17:01:56;;;;;;;7.83;4.27;;;6.00;99.90;;;;;;7455023;19;2966552;-76
2024/01/22 17:04:28;;;;;;;7.13;3.40;;;6.00;99.90;;;;;;7554348;19;20069;-76
2024/01/22 17:07:04;;;;;;;6.93;4.00;;;6.10;99.90;;;;;;7541137;19;20582;-76
2024/01/22 17:09:37;;;;;;;6.32;3.15;;;6.20;99.90;;;;;;7543238;19;20028;-77
2024/01/22 17:12:10;;;;;;;5.78;2.95;;;6.30;99.90;;;;;;7582319;19;20022;-76
2024/01/22 17:14:42;;;;;;;5.65;2.88;;;6.50;99.90;;;;;;7562998;19;20105;-77
2024/01/22 17:17:15;;;;;;;8.38;2.58;;;6.50;99.90;;;;;;7581750;19;20021;-76
2024/01/22 17:19:47;;;;;;;11.23;2.95;;;6.50;99.90;;;;;;7577371;19;20022;-78
2024/01/22 17:22:23;;;;;;;4.10;1.92;;;6.60;99.90;;;;;;7604846;19;20018;-77
2024/01/22 17:24:55;;;;;;;1.88;1.38;;;6.70;99.90;;;;;;7593869;19;20036;-77
2024/01/22 17:27:28;;;;;;;5.13;1.70;;;6.90;99.90;;;;;;7588846;19;20347;-77
2024/01/22 17:30:00;;;;;;;5.93;1.60;;;7.00;99.90;;;;;;7583128;19;20018;-79
2024/01/22 17:32:33;;;;;;;1.60;1.17;;;7.00;99.90;;;;;;7566381;19;20036;-77
2024/01/22 17:35:06;;;;;;;2.15;1.25;;;8.10;99.90;;;;;;7573952;19;20026;-77
2024/01/22 17:37:38;;;;;;;2.53;1.52;;;7.10;99.90;;;;;;7582671;19;20850;-78
2024/01/22 17:40:11;;;;;;;7.65;1.48;;;7.10;99.90;;;;;;7564946;19;20025;-77
2024/01/22 17:42:44;;;;;;;;;;;7.00;99.90;;;;;;7585800;19;20540;-76
2024/01/22 17:45:18;;;;;;;2.85;2.00;;;7.00;99.90;;;;;;7580297;19;19922;-79
2024/01/22 17:47:50;;;;;;;2.45;1.65;;;7.00;99.90;;;;;;7591533;19;20025;-79
2024/01/22 17:50:23;;;;;;;4.35;1.63;;;6.90;99.90;;;;;;7577928;19;21100;-78
2024/01/22 17:52:56;;;;;;;2.15;1.33;;;7.00;99.90;;;;;;7589791;19;20025;-78
2024/01/22 17:55:32;;;;;;;2.45;1.48;;;7.00;99.90;;;;;;7597188;19;20022;-78
2024/01/22 17:58:04;;;;;;;6.32;2.28;;;7.10;99.90;;;;;;7571458;19;20565;-77
2024/01/22 18:00:37;;;;;;;1.92;1.25;;;7.00;99.90;;;;;;7590277;19;21464;-78
2024/01/22 18:03:10;;;;;;;4.67;2.33;;;7.10;99.90;;;;;;7580500;19;20018;-79
2024/01/22 18:05:42;;;;;;;4.53;1.77;;;7.00;99.90;;;;;;7592434;19;20294;-78
2024/01/22 18:08:15;;;;;;;8.30;2.55;;;7.00;99.90;;;;;;7600723;19;20014;-78
2024/01/22 18:10:50;;;;;;;5.90;3.78;;;7.00;99.90;;;;;;7584367;19;20663;-75
2024/01/22 18:13:22;;;;;;;3.40;2.10;;;7.00;99.90;;;;;;7559214;19;20024;-75
2024/01/22 18:15:56;;;;;;;2.15;1.40;;;7.10;99.90;;;;;;7573302;19;20014;-77
2024/01/22 18:18:29;;;;;;;6.95;1.65;;;7.10;99.90;;;;;;7561822;19;20015;-76
2024/01/22 18:21:02;;;;;;;1.40;0.77;;;7.20;99.90;;;;;;7575518;19;20101;-75
2024/01/22 18:23:35;;;;;;;5.45;1.50;;;7.30;99.90;;;;;;7559060;19;20102;-76
2024/01/22 18:26:07;;;;;;;2.42;1.25;;;7.30;99.90;;;;;;7556484;19;20571;-74
2024/01/22 18:28:40;;;;;;;1.73;1.13;;;7.40;99.90;;;;;;7569314;19;20097;-75
2024/01/22 18:31:13;;;;;;;2.35;1.10;;;7.30;99.90;;;;;;7579805;19;20067;-74
2024/01/22 18:33:45;;;;;;;3.45;1.65;;;7.30;99.90;;;;;;7552735;19;20892;-75
2024/01/22 18:36:18;;;;;;;2.70;1.40;;;7.40;99.90;;;;;;7573811;19;20717;-76
2024/01/22 18:38:50;;;;;;;2.83;1.08;;;7.30;99.90;;;;;;7576445;19;20014;-75
2024/01/22 18:41:26;;;;;;;3.92;1.70;;;7.30;99.90;;;;;;7567576;19;20018;-74
2024/01/22 18:44:02;;;;;;;2.80;0.85;;;7.30;99.90;;;;;;7577498;19;20018;-76
2024/01/22 18:46:35;;;;;;;3.63;1.40;;;7.30;99.90;;;;;;7569628;19;20935;-74
2024/01/22 18:49:08;;;;;;;2.17;1.30;;;7.20;99.90;;;;;;7560126;19;20633;-76
2024/01/22 18:51:41;;;;;;;2.22;1.13;;;7.10;99.90;;;;;;7557031;19;20496;-73
2024/01/22 18:54:15;;;;;;;5.75;1.45;;;7.20;99.90;;;;;;7569695;19;20386;-75
2024/01/22 18:56:48;;;;;;;2.55;1.20;;;7.20;99.90;;;;;;7573802;19;21309;-75
2024/01/22 18:59:20;;;;;;;1.70;1.20;;;7.10;99.90;;;;;;7073299;19;10000332;-74
2024/01/22 19:01:52;;;;;;;2.70;1.33;;;7.10;99.90;;;;;;7561682;19;20455;-74
2024/01/22 19:04:25;;;;;;;1.55;0.65;;;7.00;99.90;;;;;;7567713;19;20491;-75
2024/01/22 19:06:57;;;;;;;1.88;1.10;;;7.00;99.90;;;;;;7568285;19;20018;-74
2024/01/22 19:09:36;;;;;;;1.63;1.10;;;6.90;99.90;;;;;;7559018;19;20018;-78
2024/01/22 19:12:08;;;;;;;2.58;1.30;;;6.90;99.90;;;;;;7552393;19;20018;-75
2024/01/22 19:14:41;;;;;;;2.67;1.60;;;6.80;99.90;;;;;;7559921;19;20021;-75
2024/01/22 19:17:13;;;;;;;1.80;1.50;;;6.70;99.90;;;;;;7563618;19;20010;-74
2024/01/22 19:19:46;;;;;;;2.07;1.47;;;6.60;99.90;;;;;;7537017;19;20527;-76
2024/01/22 19:22:18;;;;;;;3.15;1.80;;;6.60;99.90;;;;;;7563186;19;20027;-74
2024/01/22 19:24:52;;;;;;;3.67;1.67;;;6.50;99.90;;;;;;7571049;19;20778;-75
2024/01/22 19:27:26;;;;;;;8.13;2.00;;;6.50;99.90;;;;;;7554832;19;20014;-74
2024/01/22 19:29:59;;;;;;;2.57;1.40;;;6.50;99.90;;;;;;7566520;19;20037;-76
2024/01/22 19:32:31;;;;;;;4.70;1.90;;;6.50;99.90;;;;;;7530172;19;21499;-76
2024/01/22 19:35:04;;;;;;;2.75;1.98;;;6.40;99.90;;;;;;7562880;19;20358;-76
2024/01/22 19:37:36;;;;;;;4.70;3.15;;;6.40;99.90;;;;;;7552832;19;20018;-77
2024/01/22 19:40:09;;;;;;;2.53;1.50;;;6.30;99.90;;;;;;7540898;19;21018;-76
2024/01/22 19:42:41;;;;;;;2.67;1.63;;;6.30;99.90;;;;;;7545848;19;20036;-76
2024/01/22 19:45:14;;;;;;;3.30;1.58;;;6.30;99.90;;;;;;7558086;19;20363;-75
2024/01/22 19:47:46;;;;;;;5.70;2.08;;;6.30;99.90;;;;;;7560564;19;20036;-76
2024/01/22 19:50:18;;;;;;;2.67;1.60;;;6.30;99.90;;;;;;7562701;19;20018;-76
2024/01/22 19:52:52;;;;;;;4.90;3.50;;;6.40;99.90;;;;;;7550924;19;20018;-75
2024/01/22 19:55:25;;;;;;;4.03;2.67;;;6.40;99.90;;;;;;7558584;19;20015;-74
2024/01/22 19:57:59;;;;;;;2.83;1.90;;;6.40;99.90;;;;;;7557726;19;20026;-76
2024/01/22 20:00:32;;;;;;;4.80;2.40;;;6.40;99.90;;;;;;7560259;19;20022;-76
2024/01/22 20:03:05;;;;;;;2.33;1.83;;;6.30;99.90;;;;;;7555662;19;20374;-75
2024/01/22 20:05:38;;;;;;;3.80;2.25;;;6.30;99.90;;;;;;7565409;19;20135;-76
2024/01/22 20:08:10;;;;;;;4.40;2.80;;;6.30;99.90;;;;;;7569166;19;20018;-76
2024/01/22 20:10:43;;;;;;;17.40;9.38;;;6.30;99.90;;;;;;7549142;19;20928;-76
2024/01/22 20:13:18;;;;;;;4.75;2.42;;;6.20;99.90;;;;;;7547958;19;20022;-76
2024/01/22 20:15:51;;;;;;;3.55;2.13;;;6.30;99.90;;;;;;7561084;19;20022;-76
2024/01/22 20:18:23;;;;;;;1.92;1.40;;;6.40;99.90;;;;;;7558369;19;20022;-76
2024/01/22 20:20:56;;;;;;;2.47;1.52;;;6.40;99.90;;;;;;7549123;19;20074;-75
2024/01/22 20:23:28;;;;;;;1.30;1.00;;;6.40;99.90;;;;;;7531971;19;20829;-76
2024/01/22 20:26:03;;;;;;;4.25;1.20;;;6.50;99.90;;;;;;7514319;19;20022;-74
2024/01/22 20:28:35;;;;;;;3.08;1.40;;;6.40;99.90;;;;;;7547881;19;20125;-74
2024/01/22 20:31:07;;;;;;;2.75;1.10;;;6.40;99.90;;;;;;7533664;19;20013;-75
2024/01/22 20:33:40;;;;;;;1.58;1.35;;;6.40;99.90;;;;;;7532970;19;20585;-77
